createdAt,value
2023-03-06T00:01:38.143Z,53.17
2023-03-06T00:04:10.952Z,53.19
2023-03-06T00:06:44.967Z,53.14
2023-03-06T00:09:18.323Z,52.91
2023-03-06T00:11:51.176Z,53.07
2023-03-06T00:14:24.901Z,52.94
2023-03-06T00:16:58.798Z,52.93
2023-03-06T00:19:32.191Z,52.82
2023-03-06T00:22:05.477Z,53.03
2023-03-06T00:24:39.646Z,53.13
2023-03-06T00:27:13.861Z,53.12
2023-03-06T00:29:49.727Z,53.36
2023-03-06T00:32:23.798Z,53.68
2023-03-06T00:34:58.493Z,53.66
2023-03-06T00:37:32.305Z,53.64
2023-03-06T00:40:08.452Z,53.68
2023-03-06T00:42:42.812Z,53.62
2023-03-06T00:45:16.610Z,53.72
2023-03-06T00:47:51.580Z,53.73
2023-03-06T00:50:24.818Z,53.57
2023-03-06T00:52:58.354Z,53.17
2023-03-06T00:55:31.721Z,52.71
2023-03-06T00:58:04.669Z,52.49
2023-03-06T01:00:37.462Z,52.44
2023-03-06T01:03:10.663Z,52.36
2023-03-06T01:05:43.527Z,51.70
2023-03-06T01:08:16.692Z,50.95
2023-03-06T01:10:49.505Z,51.43
2023-03-06T01:13:22.579Z,51.65
2023-03-06T01:15:57.975Z,50.67
2023-03-06T01:18:31.018Z,51.09
2023-03-06T01:21:03.896Z,51.25
2023-03-06T01:23:37.129Z,51.14
2023-03-06T01:26:10.555Z,51.26
2023-03-06T01:28:43.410Z,50.67
2023-03-06T01:31:16.114Z,50.83
2023-03-06T01:33:48.755Z,51.09
2023-03-06T01:36:21.781Z,51.01
2023-03-06T01:38:54.866Z,50.93
2023-03-06T01:41:27.999Z,50.89
2023-03-06T01:44:01.212Z,50.77
2023-03-06T01:46:44.596Z,50.76
2023-03-06T01:49:33.948Z,50.75
2023-03-06T01:52:18.988Z,50.71
2023-03-06T01:54:59.909Z,50.85
2023-03-06T01:57:39.651Z,50.88
2023-03-06T02:00:16.512Z,51.10
2023-03-06T02:02:59.177Z,51.18
2023-03-06T02:05:32.629Z,51.16
2023-03-06T02:08:07.807Z,51.28
2023-03-06T02:10:42.756Z,51.41
2023-03-06T02:13:15.531Z,51.66
2023-03-06T02:15:48.665Z,51.76
2023-03-06T02:18:22.027Z,51.81
2023-03-06T02:20:59.695Z,51.89
2023-03-06T02:24:14.385Z,51.93
2023-03-06T02:26:48.806Z,52.08
2023-03-06T02:29:27.449Z,52.33
2023-03-06T02:32:01.872Z,52.32
2023-03-06T02:34:52.297Z,52.23
2023-03-06T02:37:26.375Z,52.42
2023-03-06T02:40:20.305Z,52.77
2023-03-06T02:43:00.109Z,52.89
2023-03-06T02:45:41.351Z,52.79
2023-03-06T02:48:15.459Z,52.75
2023-03-06T02:50:49.267Z,52.73
2023-03-06T02:53:23.250Z,52.87
2023-03-06T02:55:56.548Z,52.87
2023-03-06T02:58:29.635Z,52.75
2023-03-06T03:01:03.009Z,52.88
2023-03-06T03:03:36.020Z,52.96
2023-03-06T03:06:11.608Z,52.91
2023-03-06T03:08:44.958Z,52.98
2023-03-06T03:11:18.167Z,52.87
2023-03-06T03:13:51.236Z,52.98
2023-03-06T03:16:30.053Z,53.02
2023-03-06T03:19:03.908Z,52.90
2023-03-06T03:21:37.280Z,52.97
2023-03-06T03:24:10.885Z,53.10
2023-03-06T03:26:44.557Z,53.12
2023-03-06T03:29:20.255Z,53.28
2023-03-06T03:31:53.096Z,53.24
2023-03-06T03:34:25.999Z,53.29
2023-03-06T03:36:59.225Z,53.22
2023-03-06T03:39:32.339Z,53.25
2023-03-06T03:42:05.324Z,53.31
2023-03-06T03:44:38.641Z,53.32
2023-03-06T03:47:11.563Z,53.10
2023-03-06T03:49:44.467Z,53.05
2023-03-06T03:52:17.738Z,53.18
2023-03-06T03:54:51.022Z,53.24
2023-03-06T03:57:23.769Z,53.14
2023-03-06T03:59:57.873Z,53.23
2023-03-06T04:02:48.726Z,53.28
2023-03-06T04:05:35.365Z,53.45
2023-03-06T04:08:09.371Z,53.42
2023-03-06T04:10:43.993Z,53.55
2023-03-06T04:13:18.609Z,53.59
2023-03-06T04:15:53.339Z,53.65
2023-03-06T04:18:26.594Z,53.68
2023-03-06T04:21:01.250Z,53.69
2023-03-06T04:23:34.035Z,53.75
2023-03-06T04:26:07.518Z,53.75
2023-03-06T04:28:40.112Z,53.96
2023-03-06T04:31:14.987Z,53.89
2023-03-06T04:33:48.502Z,54.00
2023-03-06T04:36:39.553Z,54.21
2023-03-06T04:39:16.628Z,54.06
2023-03-06T04:41:50.178Z,54.30
2023-03-06T04:44:23.100Z,54.25
2023-03-06T04:46:55.784Z,54.19
2023-03-06T04:49:28.720Z,53.96
2023-03-06T04:52:01.281Z,54.03
2023-03-06T04:54:34.344Z,54.33
2023-03-06T04:57:07.248Z,54.33
2023-03-06T04:59:40.097Z,54.30
2023-03-06T05:02:13.127Z,54.45
2023-03-06T05:04:46.197Z,54.51
2023-03-06T05:07:18.986Z,54.36
2023-03-06T05:09:51.784Z,54.44
2023-03-06T05:12:24.343Z,54.34
2023-03-06T05:14:57.182Z,54.20
2023-03-06T05:17:30.326Z,54.23
2023-03-06T05:20:03.343Z,54.48
2023-03-06T05:22:37.236Z,54.23
2023-03-06T05:25:11.031Z,54.36
2023-03-06T05:27:44.450Z,54.59
2023-03-06T05:30:19.210Z,54.43
2023-03-06T05:32:53.121Z,54.40
2023-03-06T05:35:26.588Z,54.48
2023-03-06T05:37:59.777Z,54.45
2023-03-06T05:40:32.910Z,54.39
2023-03-06T05:43:07.089Z,54.17
2023-03-06T05:45:41.842Z,53.88
2023-03-06T05:48:15.911Z,53.50
2023-03-06T05:50:58.536Z,53.48
2023-03-06T05:53:32.041Z,53.48
2023-03-06T05:56:07.481Z,53.30
2023-03-06T05:58:41.457Z,52.83
2023-03-06T06:01:17.145Z,52.51
2023-03-06T06:03:50.712Z,52.41
2023-03-06T06:06:24.066Z,52.36
2023-03-06T06:08:57.088Z,52.14
2023-03-06T06:11:30.014Z,51.96
2023-03-06T06:14:03.225Z,51.64
2023-03-06T06:16:36.361Z,51.39
2023-03-06T06:19:11.897Z,51.21
2023-03-06T06:21:45.492Z,51.50
2023-03-06T06:24:20.795Z,51.46
2023-03-06T06:26:55.716Z,51.56
2023-03-06T06:29:30.537Z,51.44
2023-03-06T06:32:10.623Z,51.38
2023-03-06T06:34:44.042Z,51.13
2023-03-06T06:37:17.428Z,50.86
2023-03-06T06:39:52.429Z,50.95
2023-03-06T06:42:35.087Z,51.37
2023-03-06T06:45:15.706Z,51.69
2023-03-06T06:47:50.970Z,51.83
2023-03-06T06:50:24.174Z,52.05
2023-03-06T06:52:58.911Z,52.15
2023-03-06T06:55:31.915Z,52.43
2023-03-06T06:58:06.154Z,52.48
2023-03-06T07:00:40.592Z,52.56
2023-03-06T07:03:16.646Z,52.40
2023-03-06T07:05:58.376Z,52.35
2023-03-06T07:08:33.781Z,52.42
2023-03-06T07:11:16.442Z,52.18
2023-03-06T07:13:50.945Z,51.69
2023-03-06T07:16:25.133Z,51.67
2023-03-06T07:18:58.474Z,51.18
2023-03-06T07:21:32.054Z,51.30
2023-03-06T07:24:05.223Z,51.15
2023-03-06T07:26:39.295Z,51.25
2023-03-06T07:29:13.657Z,51.31
2023-03-06T07:31:47.601Z,50.10
2023-03-06T07:34:21.755Z,50.60
2023-03-06T07:36:55.112Z,50.98
2023-03-06T07:39:28.754Z,50.55
2023-03-06T07:42:02.200Z,50.22
2023-03-06T07:44:39.304Z,49.25
2023-03-06T07:47:14.354Z,49.84
2023-03-06T07:49:47.892Z,49.52
2023-03-06T07:52:21.058Z,49.29
2023-03-06T07:54:54.469Z,49.90
2023-03-06T07:57:28.434Z,49.13
2023-03-06T08:00:01.669Z,48.48
2023-03-06T08:02:35.777Z,48.47
2023-03-06T08:05:10.386Z,48.50
2023-03-06T08:07:43.829Z,48.18
2023-03-06T08:10:18.540Z,47.03
2023-03-06T08:12:52.300Z,45.78
2023-03-06T08:15:25.985Z,46.21
2023-03-06T08:17:59.068Z,45.47
2023-03-06T08:20:32.190Z,44.84
2023-03-06T08:23:05.146Z,44.20
2023-03-06T08:25:38.112Z,45.43
2023-03-06T08:28:11.373Z,45.36
2023-03-06T08:30:45.560Z,45.08
2023-03-06T08:33:19.610Z,44.87
2023-03-06T08:35:55.975Z,44.47
2023-03-06T08:38:29.792Z,44.50
2023-03-06T08:41:03.337Z,45.05
2023-03-06T08:43:37.261Z,44.43
2023-03-06T08:46:12.017Z,44.14
2023-03-06T08:48:45.580Z,43.15
2023-03-06T08:51:20.608Z,43.45
2023-03-06T08:53:55.332Z,43.77
2023-03-06T08:56:34.456Z,43.30
2023-03-06T08:59:09.868Z,42.66
2023-03-06T09:01:45.595Z,41.89
2023-03-06T09:04:19.107Z,41.24
2023-03-06T09:06:53.927Z,41.11
2023-03-06T09:09:29.435Z,40.19
2023-03-06T09:12:02.543Z,40.28
2023-03-06T09:14:35.892Z,40.02
2023-03-06T09:17:10.424Z,39.68
2023-03-06T09:19:43.851Z,39.47
2023-03-06T09:22:16.906Z,39.42
2023-03-06T09:24:50.260Z,37.97
2023-03-06T09:27:23.250Z,39.34
2023-03-06T09:29:56.562Z,39.76
2023-03-06T09:32:30.816Z,39.38
2023-03-06T09:35:04.626Z,37.82
2023-03-06T09:37:38.014Z,37.94
2023-03-06T09:40:21.990Z,37.71
2023-03-06T09:42:55.329Z,37.42
2023-03-06T09:45:28.630Z,36.93
2023-03-06T09:48:14.199Z,37.20
2023-03-06T09:51:11.325Z,36.83
2023-03-06T09:53:57.353Z,37.25
2023-03-06T09:56:35.412Z,36.44
2023-03-06T09:59:18.075Z,36.40
2023-03-06T10:02:17.152Z,34.14
2023-03-06T10:04:59.917Z,33.04
2023-03-06T10:08:04.538Z,33.76
2023-03-06T10:11:04.958Z,34.26
2023-03-06T10:14:14.179Z,34.37
2023-03-06T10:16:47.495Z,35.43
2023-03-06T10:19:22.759Z,35.51
2023-03-06T10:22:23.251Z,35.93
2023-03-06T10:25:26.343Z,36.91
2023-03-06T10:28:10.561Z,36.87
2023-03-06T10:31:04.025Z,34.58
2023-03-06T10:33:51.368Z,34.45
2023-03-06T10:36:30.233Z,31.80
2023-03-06T10:39:06.805Z,33.19
2023-03-06T10:41:40.576Z,34.41
2023-03-06T10:44:15.920Z,35.19
2023-03-06T10:46:52.187Z,35.43
2023-03-06T10:49:42.898Z,35.10
2023-03-06T10:52:19.121Z,35.65
2023-03-06T10:54:52.361Z,35.03
2023-03-06T10:57:33.193Z,34.30
2023-03-06T11:00:25.806Z,34.25
2023-03-06T11:03:24.412Z,33.32
2023-03-06T11:06:03.171Z,31.19
2023-03-06T11:08:37.844Z,32.20
2023-03-06T11:11:36.867Z,32.62
2023-03-06T11:14:24.582Z,32.14
2023-03-06T11:16:59.216Z,30.66
2023-03-06T11:19:33.473Z,33.29
2023-03-06T11:22:20.385Z,32.16
2023-03-06T11:24:57.020Z,31.35
2023-03-06T11:27:35.342Z,31.94
2023-03-06T11:30:27.546Z,32.55
2023-03-06T11:33:13.576Z,31.94
2023-03-06T11:36:10.487Z,32.54
2023-03-06T11:39:02.189Z,33.05
2023-03-06T11:41:51.221Z,33.22
2023-03-06T11:44:52.853Z,32.39
2023-03-06T11:47:38.363Z,31.82
2023-03-06T11:50:11.204Z,31.00
2023-03-06T11:52:54.025Z,31.27
2023-03-06T11:55:52.184Z,31.83
2023-03-06T11:58:40.906Z,33.01
2023-03-06T12:01:40.965Z,32.18
2023-03-06T12:04:48.557Z,31.94
2023-03-06T12:07:35.588Z,32.28
2023-03-06T12:10:33.092Z,32.58
2023-03-06T12:13:30.747Z,32.80
2023-03-06T12:16:26.880Z,32.64
2023-03-06T12:19:15.873Z,33.17
2023-03-06T12:22:19.154Z,33.38
2023-03-06T12:25:31.582Z,33.13
2023-03-06T12:28:25.046Z,33.42
2023-03-06T12:31:09.797Z,33.95
2023-03-06T12:34:02.900Z,32.80
2023-03-06T12:36:54.951Z,33.11
2023-03-06T12:39:46.791Z,32.17
2023-03-06T12:42:36.779Z,33.02
2023-03-06T12:45:33.158Z,32.88
2023-03-06T12:48:21.637Z,32.69
2023-03-06T12:50:55.700Z,32.51
2023-03-06T12:53:36.384Z,32.61
2023-03-06T12:56:10.091Z,32.18
2023-03-06T12:59:03.173Z,32.27
2023-03-06T13:02:00.590Z,32.99
2023-03-06T13:04:38.924Z,33.47
2023-03-06T13:07:32.974Z,33.36
2023-03-06T13:10:16.406Z,33.39
2023-03-06T13:13:02.745Z,33.06
2023-03-06T13:15:47.030Z,31.96
2023-03-06T13:18:25.982Z,31.85
2023-03-06T13:21:01.246Z,32.61
2023-03-06T13:23:37.811Z,32.17
2023-03-06T13:26:34.604Z,32.70
2023-03-06T13:29:39.349Z,32.32
2023-03-06T13:32:31.300Z,32.92
2023-03-06T13:35:05.052Z,33.46
2023-03-06T13:37:51.069Z,32.93
2023-03-06T13:40:36.866Z,32.97
2023-03-06T13:43:12.473Z,32.84
2023-03-06T13:45:48.361Z,32.27
2023-03-06T13:48:44.662Z,32.30
2023-03-06T13:51:30.512Z,32.46
2023-03-06T13:54:26.789Z,32.70
2023-03-06T13:57:26.801Z,32.20
2023-03-06T14:00:17.361Z,32.78
2023-03-06T14:03:10.421Z,33.41
2023-03-06T14:05:53.994Z,32.31
2023-03-06T14:08:42.400Z,32.44
2023-03-06T14:11:23.208Z,32.48
2023-03-06T14:13:59.371Z,32.53
2023-03-06T14:16:49.320Z,32.22
2023-03-06T14:19:26.348Z,33.48
2023-03-06T14:22:02.066Z,32.93
2023-03-06T14:24:43.417Z,32.28
2023-03-06T14:27:25.051Z,32.50
2023-03-06T14:30:09.904Z,33.44
2023-03-06T14:32:44.615Z,33.33
2023-03-06T14:35:31.191Z,33.28
2023-03-06T14:38:08.865Z,33.33
2023-03-06T14:40:46.972Z,33.06
2023-03-06T14:43:23.700Z,33.36
2023-03-06T14:46:07.835Z,33.88
2023-03-06T14:48:47.483Z,33.83
2023-03-06T14:51:26.064Z,33.58
2023-03-06T14:54:04.202Z,33.78
2023-03-06T14:56:43.708Z,34.07
2023-03-06T14:59:21.999Z,33.99
2023-03-06T15:02:04.787Z,33.76
2023-03-06T15:05:15.392Z,34.00
2023-03-06T15:07:48.875Z,34.22
2023-03-06T15:10:30.641Z,34.15
2023-03-06T15:13:26.472Z,34.44
2023-03-06T15:16:25.671Z,35.00
2023-03-06T15:19:01.693Z,34.87
2023-03-06T15:21:42.157Z,34.99
2023-03-06T15:24:37.613Z,35.28
2023-03-06T15:27:27.197Z,35.70
2023-03-06T15:30:30.674Z,35.58
2023-03-06T15:33:33.079Z,35.60
2023-03-06T15:36:08.256Z,35.69
2023-03-06T15:38:43.891Z,36.07
2023-03-06T15:41:38.552Z,36.19
2023-03-06T15:44:15.704Z,36.47
2023-03-06T15:46:51.807Z,36.62
2023-03-06T15:49:28.279Z,36.95
2023-03-06T15:52:01.805Z,37.28
2023-03-06T15:54:35.804Z,37.45
2023-03-06T15:57:18.357Z,37.65
2023-03-06T15:59:52.516Z,37.96
2023-03-06T16:02:26.994Z,38.23
2023-03-06T16:05:03.405Z,38.52
2023-03-06T16:07:36.934Z,38.82
2023-03-06T16:10:15.696Z,39.04
2023-03-06T16:12:52.697Z,39.25
2023-03-06T16:15:33.557Z,39.59
2023-03-06T16:18:08.232Z,39.75
2023-03-06T16:20:42.463Z,39.96
2023-03-06T16:23:17.115Z,39.99
2023-03-06T16:25:51.970Z,41.43
2023-03-06T16:28:27.687Z,41.40
2023-03-06T16:31:01.107Z,41.64
2023-03-06T16:33:34.229Z,41.49
2023-03-06T16:36:19.869Z,41.51
2023-03-06T16:38:54.073Z,41.92
2023-03-06T16:41:28.456Z,42.33
2023-03-06T16:44:02.292Z,42.48
2023-03-06T16:46:35.834Z,42.19
2023-03-06T16:49:10.248Z,43.55
2023-03-06T16:51:43.917Z,44.72
2023-03-06T16:54:18.537Z,43.76
2023-03-06T16:56:51.905Z,43.50
2023-03-06T16:59:25.867Z,43.46
2023-03-06T17:02:00.485Z,43.72
2023-03-06T17:04:33.591Z,44.03
2023-03-06T17:07:07.241Z,45.28
2023-03-06T17:09:41.315Z,45.17
2023-03-06T17:12:15.392Z,45.95
2023-03-06T17:14:49.167Z,46.99
2023-03-06T17:17:22.844Z,45.61
2023-03-06T17:19:56.697Z,46.25
2023-03-06T17:22:31.202Z,46.40
2023-03-06T17:25:07.438Z,46.66
2023-03-06T17:27:40.679Z,46.52
2023-03-06T17:30:14.320Z,46.96
2023-03-06T17:32:48.052Z,49.78
2023-03-06T17:35:22.179Z,48.64
2023-03-06T17:37:56.126Z,47.32
2023-03-06T17:40:29.539Z,47.15
2023-03-06T17:43:03.465Z,47.03
2023-03-06T17:45:39.035Z,46.96
2023-03-06T17:48:12.630Z,46.83
2023-03-06T17:50:46.454Z,47.26
2023-03-06T17:53:20.278Z,47.48
2023-03-06T17:55:53.748Z,47.38
2023-03-06T17:58:27.025Z,47.30
2023-03-06T18:01:01.721Z,47.32
2023-03-06T18:03:38.117Z,47.71
2023-03-06T18:06:12.656Z,47.84
2023-03-06T18:08:46.550Z,48.58
2023-03-06T18:11:20.149Z,49.34
2023-03-06T18:13:53.503Z,49.58
2023-03-06T18:16:28.886Z,49.35
2023-03-06T18:19:02.714Z,48.70
2023-03-06T18:21:36.210Z,48.43
2023-03-06T18:24:11.097Z,48.60
2023-03-06T18:26:46.392Z,48.40
2023-03-06T18:29:19.409Z,48.30
2023-03-06T18:31:53.747Z,48.36
2023-03-06T18:34:26.835Z,48.58
2023-03-06T18:36:59.941Z,48.81
2023-03-06T18:39:32.786Z,49.07
2023-03-06T18:42:06.299Z,49.01
2023-03-06T18:44:40.127Z,48.90
2023-03-06T18:47:14.287Z,48.91
2023-03-06T18:49:48.426Z,48.67
2023-03-06T18:52:25.932Z,48.83
2023-03-06T18:54:59.793Z,49.27
2023-03-06T18:57:34.090Z,49.09
2023-03-06T19:00:08.299Z,49.06
2023-03-06T19:02:41.904Z,49.64
2023-03-06T19:05:15.076Z,49.50
2023-03-06T19:07:47.920Z,49.56
2023-03-06T19:10:22.116Z,49.70
2023-03-06T19:12:55.776Z,49.67
2023-03-06T19:15:28.894Z,49.54
2023-03-06T19:18:02.936Z,49.66
2023-03-06T19:20:36.443Z,50.24
2023-03-06T19:23:10.324Z,50.08
2023-03-06T19:25:44.404Z,50.31
2023-03-06T19:28:18.522Z,50.43
2023-03-06T19:30:51.764Z,50.73
2023-03-06T19:33:25.101Z,50.50
2023-03-06T19:35:58.874Z,51.25
2023-03-06T19:38:32.093Z,51.06
2023-03-06T19:41:04.987Z,50.31
2023-03-06T19:43:38.318Z,50.42
2023-03-06T19:46:15.643Z,50.91
2023-03-06T19:48:49.273Z,51.37
2023-03-06T19:51:22.322Z,50.48
2023-03-06T19:53:55.670Z,50.64
2023-03-06T19:56:32.370Z,50.81
2023-03-06T19:59:05.425Z,50.49
2023-03-06T20:01:39.028Z,50.18
2023-03-06T20:04:11.881Z,50.38
2023-03-06T20:06:47.150Z,50.34
2023-03-06T20:09:20.798Z,50.16
2023-03-06T20:11:53.438Z,50.13
2023-03-06T20:14:26.688Z,50.29
2023-03-06T20:16:59.849Z,50.29
2023-03-06T20:19:33.213Z,50.90
2023-03-06T20:22:06.423Z,52.18
2023-03-06T20:24:39.583Z,54.07
2023-03-06T20:27:12.798Z,53.39
2023-03-06T20:29:46.314Z,53.84
2023-03-06T20:32:19.242Z,53.19
2023-03-06T20:34:52.443Z,52.49
2023-03-06T20:37:25.746Z,52.29
2023-03-06T20:39:58.868Z,52.36
2023-03-06T20:42:31.928Z,52.39
2023-03-06T20:45:05.404Z,52.40
2023-03-06T20:47:38.637Z,52.77
2023-03-06T20:50:12.297Z,52.67
2023-03-06T20:52:48.123Z,52.66
2023-03-06T20:55:21.680Z,52.47
2023-03-06T20:57:58.155Z,52.32
2023-03-06T21:00:31.113Z,52.23
2023-03-06T21:03:04.086Z,52.09
2023-03-06T21:05:37.667Z,52.14
2023-03-06T21:08:11.084Z,52.14
2023-03-06T21:10:47.281Z,52.20
2023-03-06T21:13:20.428Z,51.96
2023-03-06T21:15:53.251Z,51.93
2023-03-06T21:18:26.436Z,51.90
2023-03-06T21:20:59.309Z,52.04
2023-03-06T21:23:33.024Z,51.86
2023-03-06T21:26:06.735Z,52.18
2023-03-06T21:28:40.260Z,52.27
2023-03-06T21:31:15.480Z,52.23
2023-03-06T21:33:49.165Z,52.35
2023-03-06T21:36:23.254Z,52.06
2023-03-06T21:38:56.438Z,52.05
2023-03-06T21:41:33.198Z,51.94
2023-03-06T21:44:07.950Z,51.78
2023-03-06T21:46:41.259Z,51.94
2023-03-06T21:49:14.729Z,51.76
2023-03-06T21:51:48.496Z,51.79
2023-03-06T21:54:21.500Z,51.69
2023-03-06T21:56:54.779Z,52.02
2023-03-06T21:59:27.621Z,52.15
2023-03-06T22:02:00.769Z,52.25
2023-03-06T22:04:34.021Z,52.01
2023-03-06T22:07:07.157Z,52.13
2023-03-06T22:09:39.857Z,52.53
2023-03-06T22:12:13.254Z,52.62
2023-03-06T22:14:49.724Z,52.48
2023-03-06T22:17:22.910Z,52.48
2023-03-06T22:19:55.989Z,52.54
2023-03-06T22:22:29.792Z,52.37
2023-03-06T22:25:02.582Z,52.23
2023-03-06T22:27:35.372Z,52.23
2023-03-06T22:30:08.676Z,52.21
2023-03-06T22:32:41.536Z,52.31
2023-03-06T22:35:14.253Z,52.28
2023-03-06T22:37:46.971Z,52.49
2023-03-06T22:40:19.823Z,52.55
2023-03-06T22:42:52.702Z,52.42
2023-03-06T22:45:25.539Z,52.40
2023-03-06T22:48:10.051Z,52.49
2023-03-06T22:50:46.292Z,52.56
2023-03-06T22:53:19.290Z,52.53
2023-03-06T22:55:52.843Z,52.55
2023-03-06T22:58:25.718Z,52.76
2023-03-06T23:00:58.253Z,52.65
2023-03-06T23:03:31.288Z,52.80
2023-03-06T23:06:06.514Z,52.71
2023-03-06T23:08:39.528Z,53.14
2023-03-06T23:11:14.035Z,53.23
2023-03-06T23:14:06.941Z,53.16
2023-03-06T23:17:00.235Z,53.22
2023-03-06T23:19:53.655Z,53.17
2023-03-06T23:22:48.830Z,52.86
2023-03-06T23:25:41.602Z,52.81
2023-03-06T23:28:14.740Z,52.83
2023-03-06T23:30:47.789Z,53.27
2023-03-06T23:33:20.366Z,53.03
2023-03-06T23:35:53.300Z,53.04
2023-03-06T23:38:25.909Z,53.09
2023-03-06T23:40:58.684Z,53.27
2023-03-06T23:43:31.226Z,53.46
2023-03-06T23:46:04.546Z,53.42
2023-03-06T23:48:40.887Z,53.56
2023-03-06T23:51:21.750Z,53.44
2023-03-06T23:53:59.287Z,53.47
2023-03-06T23:56:32.186Z,53.16
2023-03-06T23:59:05.022Z,52.95
